Time;durP1;ratioP1;P1;durP2;ratioP2;P2;SDS_P1;SDS_P2;PMS_P1;PMS_P2;Temp;Humidity;BMP_temperature;BMP_pressure;BME280_temperature;BME280_humidity;BME280_pressure;Samples;Min_cycle;Max_cycle;Signal;HPM_P1;HPM_P2
2024/01/14 00:02:05;;;;;;;;;;;19.50;38.00;;;;;;5092529;28;20019;-69
2024/01/14 00:04:30;;;;;;;;;;;19.40;38.10;;;;;;5108063;28;19920;-69
2024/01/14 00:06:56;;;;;;;;;;;19.30;38.20;;;;;;5107887;28;20103;-69
2024/01/14 00:09:22;;;;;;;;;;;19.20;38.30;;;;;;5074325;28;19927;-69
2024/01/14 00:11:48;;;;;;;;;;;19.10;38.40;;;;;;5107984;28;19931;-69
2024/01/14 00:14:14;;;;;;;;;;;19.10;38.50;;;;;;5074298;28;19955;-69
2024/01/14 00:16:39;;;;;;;;;;;19.00;38.60;;;;;;5074545;28;19978;-69
2024/01/14 00:19:05;;;;;;;;;;;18.90;38.80;;;;;;5107913;28;19977;-70
2024/01/14 00:21:31;;;;;;;;;;;18.80;38.80;;;;;;5107770;28;19947;-70
2024/01/14 00:23:57;;;;;;;;;;;18.80;39.00;;;;;;5092271;28;20284;-70
2024/01/14 00:26:24;;;;;;;;;;;18.70;39.10;;;;;;5073982;28;19942;-70
2024/01/14 00:28:50;;;;;;;;;;;18.50;39.20;;;;;;5092133;28;19966;-69
2024/01/14 00:31:16;;;;;;;;;;;18.50;39.40;;;;;;5073820;28;20011;-70
2024/01/14 00:33:42;;;;;;;;;;;18.30;39.40;;;;;;5073831;28;19944;-69
2024/01/14 00:36:07;;;;;;;;;;;18.30;39.70;;;;;;5073918;28;19966;-69
2024/01/14 00:38:33;;;;;;;;;;;18.20;39.90;;;;;;5107934;28;19969;-69
2024/01/14 00:40:58;;;;;;;;;;;18.10;40.00;;;;;;5074084;28;20429;-69
2024/01/14 00:43:24;;;;;;;;;;;18.00;40.20;;;;;;5073802;28;19920;-70
2024/01/14 00:45:50;;;;;;;;;;;17.90;40.20;;;;;;5073995;28;19920;-70
2024/01/14 00:48:15;;;;;;;;;;;17.80;40.30;;;;;;5073915;28;19920;-69
2024/01/14 00:50:41;;;;;;;;;;;17.80;41.30;;;;;;5082018;28;19923;-69
2024/01/14 00:53:06;;;;;;;;;;;17.70;40.60;;;;;;5112016;28;20045;-69
2024/01/14 00:55:32;;;;;;;;;;;17.60;40.70;;;;;;5112603;28;19920;-69
2024/01/14 00:57:57;;;;;;;;;;;17.60;40.90;;;;;;5114107;28;19919;-69
2024/01/14 01:00:24;;;;;;;;;;;17.50;41.00;;;;;;5115883;28;20445;-69
2024/01/14 01:02:50;;;;;;;;;;;17.40;41.00;;;;;;5115639;28;19943;-69
2024/01/14 01:05:18;;;;;;;;;;;17.40;41.20;;;;;;5131944;27;20354;-69
2024/01/14 01:07:45;;;;;;;;;;;17.30;41.30;;;;;;5115828;28;19919;-70
2024/01/14 01:10:10;;;;;;;;;;;17.20;41.40;;;;;;5097477;28;19981;-69
2024/01/14 01:12:36;;;;;;;;;;;17.20;41.60;;;;;;5097613;28;20394;-69
2024/01/14 01:15:02;;;;;;;;;;;17.10;41.70;;;;;;5097306;28;20085;-69
2024/01/14 01:17:27;;;;;;;;;;;17.00;41.80;;;;;;5097590;28;19928;-70
2024/01/14 01:19:53;;;;;;;;;;;16.90;41.90;;;;;;5097168;28;19973;-70
2024/01/14 01:22:18;;;;;;;;;;;16.90;42.00;;;;;;5097462;28;19969;-69
2024/01/14 01:24:44;;;;;;;;;;;16.90;42.10;;;;;;5115532;28;20011;-69
2024/01/14 01:27:09;;;;;;;;;;;16.80;42.30;;;;;;5097292;28;19920;-69
2024/01/14 01:29:35;;;;;;;;;;;16.80;42.40;;;;;;5097135;28;19924;-69
2024/01/14 01:32:00;;;;;;;;;;;16.70;42.40;;;;;;5097556;28;19981;-69
2024/01/14 01:34:26;;;;;;;;;;;16.70;42.60;;;;;;5115101;28;20488;-70
2024/01/14 01:36:52;;;;;;;;;;;16.70;42.60;;;;;;5097309;28;20006;-69
2024/01/14 01:39:17;;;;;;;;;;;16.70;42.60;;;;;;5115094;28;20314;-69
2024/01/14 01:41:43;;;;;;;;;;;16.70;42.50;;;;;;5131484;27;20272;-69
2024/01/14 01:44:08;;;;;;;;;;;16.80;42.40;;;;;;5096945;28;19920;-69
2024/01/14 01:46:34;;;;;;;;;;;16.80;42.40;;;;;;5096684;28;19979;-69
2024/01/14 01:49:00;;;;;;;;;;;16.80;42.30;;;;;;5114647;28;19924;-69
2024/01/14 01:51:26;;;;;;;;;;;17.20;42.20;;;;;;5115273;28;20317;-70
2024/01/14 01:53:53;;;;;;;;;;;17.60;41.60;;;;;;5115039;28;19920;-70
2024/01/14 01:56:18;;;;;;;;;;;17.90;41.10;;;;;;5096734;28;19963;-70
2024/01/14 01:58:44;;;;;;;;;;;18.40;40.60;;;;;;5096534;28;19970;-69
2024/01/14 02:01:10;;;;;;;;;;;18.90;40.00;;;;;;5114773;28;19920;-70
2024/01/14 02:03:36;;;;;;;;;;;19.50;39.20;;;;;;5096370;28;20560;-70
2024/01/14 02:06:02;;;;;;;;;;;20.10;38.30;;;;;;5096633;28;19923;-69
2024/01/14 02:08:27;;;;;;;;;;;20.70;37.60;;;;;;5096369;28;20409;-70
2024/01/14 02:10:53;;;;;;;;;;;21.30;36.70;;;;;;5114666;28;19931;-69
2024/01/14 02:13:19;;;;;;;;;;;21.90;35.90;;;;;;5096138;28;19920;-69
2024/01/14 02:15:45;;;;;;;;;;;22.40;35.40;;;;;;5096078;28;19968;-70
2024/01/14 02:18:10;;;;;;;;;;;22.80;34.70;;;;;;5114441;28;19919;-70
2024/01/14 02:20:36;;;;;;;;;;;23.20;34.30;;;;;;5114221;28;19920;-71
2024/01/14 02:23:06;;;;;;;;;;;23.50;33.70;;;;;;5096348;28;19920;-70
2024/01/14 02:25:32;;;;;;;;;;;23.80;33.50;;;;;;5130071;27;19920;-70
2024/01/14 02:27:57;;;;;;;;;;;24.10;33.00;;;;;;5114354;28;20014;-69
2024/01/14 02:30:23;;;;;;;;;;;24.10;32.70;;;;;;5114129;28;20390;-70
2024/01/14 02:32:50;;;;;;;;;;;24.20;32.70;;;;;;5096100;28;19923;-70
2024/01/14 02:35:16;;;;;;;;;;;24.10;32.60;;;;;;5113954;28;19926;-70
2024/01/14 02:37:43;;;;;;;;;;;24.10;32.50;;;;;;5095951;28;20007;-70
2024/01/14 02:40:10;;;;;;;;;;;24.00;32.50;;;;;;5095722;28;19920;-70
2024/01/14 02:42:40;;;;;;;;;;;23.80;32.50;;;;;;5095407;28;20022;-70
2024/01/14 02:45:07;;;;;;;;;;;23.60;32.80;;;;;;5087459;28;19920;-69
2024/01/14 02:47:33;;;;;;;;;;;23.50;33.00;;;;;;5095528;28;19919;-70
2024/01/14 02:49:58;;;;;;;;;;;23.30;33.10;;;;;;5113433;28;19924;-70
2024/01/14 02:52:27;;;;;;;;;;;23.00;33.20;;;;;;5129485;27;19920;-70
2024/01/14 02:54:52;;;;;;;;;;;22.80;33.50;;;;;;5095654;28;20377;-69
2024/01/14 02:57:18;;;;;;;;;;;22.70;33.80;;;;;;5095277;28;20014;-70
2024/01/14 02:59:44;;;;;;;;;;;22.50;33.90;;;;;;5095664;28;19964;-70
2024/01/14 03:02:09;;;;;;;;;;;22.30;34.20;;;;;;5113575;28;19924;-70
2024/01/14 03:04:35;;;;;;;;;;;22.10;34.40;;;;;;5113495;28;19920;-70
2024/01/14 03:07:00;;;;;;;;;;;22.00;34.60;;;;;;5095120;28;19924;-70
2024/01/14 03:09:26;;;;;;;;;;;21.80;34.80;;;;;;5113578;28;19926;-70
2024/01/14 03:11:51;;;;;;;;;;;21.70;35.00;;;;;;5095018;28;20010;-70
2024/01/14 03:14:17;;;;;;;;;;;21.50;35.10;;;;;;5095249;28;19924;-70
2024/01/14 03:16:43;;;;;;;;;;;21.40;35.40;;;;;;5095340;28;19920;-71
2024/01/14 03:19:09;;;;;;;;;;;21.30;35.40;;;;;;5094555;28;19920;-71
2024/01/14 03:21:34;;;;;;;;;;;21.20;35.60;;;;;;5112714;28;19934;-70
2024/01/14 03:24:00;;;;;;;;;;;21.10;35.80;;;;;;5129319;27;19923;-70
2024/01/14 03:26:28;;;;;;;;;;;21.00;36.00;;;;;;5129341;27;20379;-71
2024/01/14 03:28:54;;;;;;;;;;;20.90;36.20;;;;;;5094951;28;19920;-69
2024/01/14 03:31:19;;;;;;;;;;;20.70;36.20;;;;;;5094675;28;19927;-70
2024/01/14 03:33:45;;;;;;;;;;;20.60;36.40;;;;;;5094684;28;19920;-70
2024/01/14 03:36:13;;;;;;;;;;;20.50;36.50;;;;;;5125500;27;19924;-69
2024/01/14 03:38:38;;;;;;;;;;;20.40;36.60;;;;;;5115258;27;19920;-70
2024/01/14 03:41:04;;;;;;;;;;;20.30;36.90;;;;;;5114863;27;20405;-70
2024/01/14 03:43:29;;;;;;;;;;;20.20;36.90;;;;;;5115256;27;19920;-70
2024/01/14 03:45:55;;;;;;;;;;;20.10;37.10;;;;;;5114933;27;19919;-70
2024/01/14 03:48:20;;;;;;;;;;;20.00;37.20;;;;;;5133324;27;20078;-70
2024/01/14 03:50:46;;;;;;;;;;;19.90;37.30;;;;;;5114755;28;19931;-69
2024/01/14 03:53:11;;;;;;;;;;;19.80;37.40;;;;;;5133445;28;20290;-69
2024/01/14 03:55:37;;;;;;;;;;;19.70;37.50;;;;;;5149631;27;20423;-70
2024/01/14 03:58:03;;;;;;;;;;;19.60;37.70;;;;;;5115133;28;19926;-69
2024/01/14 04:00:28;;;;;;;;;;;19.50;37.80;;;;;;5115087;28;19919;-70
2024/01/14 04:02:54;;;;;;;;;;;19.40;37.90;;;;;;5133310;28;20010;-69
2024/01/14 04:05:19;;;;;;;;;;;19.30;38.00;;;;;;5133093;28;19923;-69
2024/01/14 04:07:45;;;;;;;;;;;19.20;38.20;;;;;;5133079;27;19919;-70
2024/01/14 04:10:12;;;;;;;;;;;19.10;38.30;;;;;;5114633;28;19923;-70
2024/01/14 04:12:44;;;;;;;;;;;19.00;38.50;;;;;;5114866;28;19964;-71
2024/01/14 04:15:09;;;;;;;;;;;18.90;38.60;;;;;;5115062;28;19920;-70
2024/01/14 04:17:35;;;;;;;;;;;18.80;38.80;;;;;;5114718;28;19920;-70
2024/01/14 04:20:00;;;;;;;;;;;18.70;38.90;;;;;;5149068;27;19919;-70
2024/01/14 04:22:26;;;;;;;;;;;18.70;39.10;;;;;;5114559;28;19919;-70
2024/01/14 04:24:51;;;;;;;;;;;18.50;39.10;;;;;;5149427;27;19919;-69
2024/01/14 04:27:17;;;;;;;;;;;18.50;39.30;;;;;;5097747;28;19924;-69
2024/01/14 04:29:42;;;;;;;;;;;18.40;39.40;;;;;;5132896;28;20006;-69
2024/01/14 04:32:08;;;;;;;;;;;18.30;39.50;;;;;;5133734;27;19919;-70
2024/01/14 04:34:34;;;;;;;;;;;18.30;39.70;;;;;;5136951;27;20290;-70
2024/01/14 04:37:00;;;;;;;;;;;18.20;39.80;;;;;;5136853;27;20286;-69
2024/01/14 04:39:25;;;;;;;;;;;18.10;39.90;;;;;;5136856;27;19927;-70
2024/01/14 04:41:51;;;;;;;;;;;18.10;40.00;;;;;;5118641;27;20287;-70
2024/01/14 04:44:16;;;;;;;;;;;18.00;40.10;;;;;;5136916;27;19930;-69
2024/01/14 04:46:42;;;;;;;;;;;17.90;40.10;;;;;;5136678;27;19919;-69
2024/01/14 04:49:08;;;;;;;;;;;17.90;40.30;;;;;;5117920;27;19980;-69
2024/01/14 04:51:34;;;;;;;;;;;17.80;40.30;;;;;;5152524;27;19930;-70
2024/01/14 04:54:00;;;;;;;;;;;17.80;40.50;;;;;;5152873;27;19927;-69
2024/01/14 04:56:29;;;;;;;;;;;17.80;40.70;;;;;;5118483;27;20442;-69
2024/01/14 04:58:54;;;;;;;;;;;17.70;40.70;;;;;;5118481;27;20060;-70
2024/01/14 05:01:20;;;;;;;;;;;17.60;40.70;;;;;;5117975;27;20393;-70
2024/01/14 05:03:48;;;;;;;;;;;17.60;40.70;;;;;;5118349;27;19920;-70
2024/01/14 05:06:14;;;;;;;;;;;17.60;40.70;;;;;;5117900;27;19920;-70
2024/01/14 05:08:42;;;;;;;;;;;17.70;40.70;;;;;;5118118;27;19919;-69
2024/01/14 05:11:07;;;;;;;;;;;17.60;40.70;;;;;;5117849;27;19927;-69
2024/01/14 05:13:33;;;;;;;;;;;17.60;40.60;;;;;;5117852;27;20378;-70
2024/01/14 05:15:59;;;;;;;;;;;17.60;40.70;;;;;;5118196;27;20010;-70
2024/01/14 05:18:24;;;;;;;;;;;17.60;40.70;;;;;;5117696;27;20031;-70
2024/01/14 05:20:50;;;;;;;;;;;17.60;40.80;;;;;;5117701;27;19965;-69
2024/01/14 05:23:15;;;;;;;;;;;17.50;40.90;;;;;;5117820;27;19926;-70
2024/01/14 05:25:41;;;;;;;;;;;17.40;41.00;;;;;;5135965;27;19923;-70
2024/01/14 05:28:07;;;;;;;;;;;17.40;41.10;;;;;;5117511;27;20427;-69
2024/01/14 05:30:33;;;;;;;;;;;17.40;41.10;;;;;;5117490;27;19924;-70
2024/01/14 05:32:58;;;;;;;;;;;17.40;41.10;;;;;;5135865;27;19972;-69
2024/01/14 05:35:24;;;;;;;;;;;17.40;41.90;;;;;;5134781;27;19923;-69
2024/01/14 05:37:49;;;;;;;;;;;17.40;41.10;;;;;;5117315;27;19920;-69
2024/01/14 05:40:15;;;;;;;;;;;17.30;41.10;;;;;;5117718;27;19923;-70
2024/01/14 05:42:41;;;;;;;;;;;17.30;41.10;;;;;;5116767;27;19926;-69
2024/01/14 05:45:07;;;;;;;;;;;17.30;41.20;;;;;;5117411;27;19930;-70
2024/01/14 05:47:33;;;;;;;;;;;17.30;41.20;;;;;;5117467;27;19919;-69
2024/01/14 05:49:59;;;;;;;;;;;17.30;41.30;;;;;;5151154;27;20422;-70
2024/01/14 05:52:28;;;;;;;;;;;17.70;41.30;;;;;;5117152;27;20372;-70
2024/01/14 05:54:53;;;;;;;;;;;18.00;40.60;;;;;;5117522;27;19924;-69
2024/01/14 05:57:19;;;;;;;;;;;18.40;40.30;;;;;;5117210;27;19968;-69
2024/01/14 05:59:44;;;;;;;;;;;18.80;39.90;;;;;;5151419;27;19926;-69
2024/01/14 06:02:10;;;;;;;;;;;19.30;39.20;;;;;;5135388;27;19919;-70
2024/01/14 06:04:35;;;;;;;;;;;19.80;38.50;;;;;;5135686;27;19919;-70
2024/01/14 06:07:01;;;;;;;;;;;20.40;37.80;;;;;;5116735;27;19963;-70
2024/01/14 06:09:26;;;;;;;;;;;21.10;36.90;;;;;;5116804;27;19985;-70
2024/01/14 06:11:52;;;;;;;;;;;21.60;36.30;;;;;;5116732;27;19919;-70
2024/01/14 06:14:18;;;;;;;;;;;22.20;35.60;;;;;;5116965;27;19919;-70
2024/01/14 06:16:43;;;;;;;;;;;22.60;34.60;;;;;;5134386;27;19926;-70
2024/01/14 06:19:09;;;;;;;;;;;23.10;34.20;;;;;;5134938;27;20044;-71
2024/01/14 06:21:42;;;;;;;;;;;23.40;33.70;;;;;;5134905;27;19978;-70
2024/01/14 06:24:08;;;;;;;;;;;23.70;33.30;;;;;;5116726;27;19923;-70
2024/01/14 06:26:33;;;;;;;;;;;24.10;32.80;;;;;;5116447;27;20410;-70
2024/01/14 06:28:59;;;;;;;;;;;24.10;32.50;;;;;;5116340;27;19927;-70
2024/01/14 06:31:24;;;;;;;;;;;24.30;32.20;;;;;;5116200;27;19931;-70
2024/01/14 06:33:50;;;;;;;;;;;24.20;32.30;;;;;;5134623;27;19927;-70
2024/01/14 06:36:17;;;;;;;;;;;24.20;32.40;;;;;;5150656;27;20056;-70
2024/01/14 06:38:43;;;;;;;;;;;24.00;32.30;;;;;;5134466;27;19919;-70
2024/01/14 06:41:11;;;;;;;;;;;23.80;32.30;;;;;;5116080;27;19927;-70
2024/01/14 06:43:36;;;;;;;;;;;23.70;32.70;;;;;;5134410;27;19934;-70
2024/01/14 06:46:02;;;;;;;;;;;23.50;32.80;;;;;;5116353;27;19919;-71
2024/01/14 06:48:28;;;;;;;;;;;23.30;32.90;;;;;;5134528;27;19919;-70
2024/01/14 06:50:53;;;;;;;;;;;23.10;33.20;;;;;;5097979;28;19930;-70
2024/01/14 06:53:19;;;;;;;;;;;22.90;33.40;;;;;;5113664;28;19965;-70
2024/01/14 06:55:44;;;;;;;;;;;22.70;33.60;;;;;;5094594;28;19920;-70
2024/01/14 06:58:10;;;;;;;;;;;22.50;33.80;;;;;;5113642;28;19920;-70
2024/01/14 07:00:35;;;;;;;;;;;22.30;34.00;;;;;;5113507;28;19927;-70
2024/01/14 07:03:01;;;;;;;;;;;22.10;34.20;;;;;;5095211;28;19956;-70
2024/01/14 07:05:26;;;;;;;;;;;22.00;34.50;;;;;;5095360;28;19931;-70
2024/01/14 07:07:52;;;;;;;;;;;21.80;34.70;;;;;;5129668;27;19920;-70
2024/01/14 07:10:17;;;;;;;;;;;21.70;34.90;;;;;;5113233;28;19923;-70
2024/01/14 07:12:43;;;;;;;;;;;21.50;35.10;;;;;;5095397;28;20014;-69
2024/01/14 07:15:09;;;;;;;;;;;21.40;35.20;;;;;;5129169;27;19919;-70
2024/01/14 07:17:34;;;;;;;;;;;21.30;35.40;;;;;;5113317;28;19934;-70
2024/01/14 07:20:01;;;;;;;;;;;21.20;35.50;;;;;;5094685;28;19923;-70
2024/01/14 07:22:26;;;;;;;;;;;21.10;35.70;;;;;;5113191;28;20344;-70
2024/01/14 07:24:52;;;;;;;;;;;21.00;35.90;;;;;;5113098;28;19924;-70
2024/01/14 07:27:17;;;;;;;;;;;20.90;36.00;;;;;;5113121;28;20414;-70
2024/01/14 07:29:43;;;;;;;;;;;20.70;36.10;;;;;;5113413;28;19926;-70
2024/01/14 07:32:08;;;;;;;;;;;20.60;36.30;;;;;;5094987;28;20006;-70
2024/01/14 07:34:37;;;;;;;;;;;20.50;36.40;;;;;;5094766;28;19920;-69
2024/01/14 07:37:03;;;;;;;;;;;20.50;36.60;;;;;;5095050;28;20014;-69
2024/01/14 07:39:29;;;;;;;;;;;20.30;36.70;;;;;;5094713;28;20007;-69
2024/01/14 07:41:54;;;;;;;;;;;20.20;36.80;;;;;;5094904;28;19959;-70
2024/01/14 07:44:20;;;;;;;;;;;20.10;37.00;;;;;;5113131;28;19920;-70
2024/01/14 07:46:45;;;;;;;;;;;20.00;37.10;;;;;;5094881;28;19943;-69
2024/01/14 07:49:14;;;;;;;;;;;20.00;37.30;;;;;;5097963;28;19923;-70
2024/01/14 07:51:39;;;;;;;;;;;19.80;37.40;;;;;;5133196;27;19923;-69
2024/01/14 07:54:05;;;;;;;;;;;19.70;37.50;;;;;;5133306;28;19919;-70
2024/01/14 07:56:30;;;;;;;;;;;19.60;37.60;;;;;;5115052;28;19970;-70
2024/01/14 07:58:56;;;;;;;;;;;19.50;38.50;;;;;;5133430;28;20374;-69
2024/01/14 08:01:21;;;;;;;;;;;19.40;37.90;;;;;;5114849;28;19920;-70
2024/01/14 08:03:48;;;;;;;;;;;19.30;38.10;;;;;;5115253;28;19930;-69
2024/01/14 08:06:18;;;;;;;;;;;19.20;38.20;;;;;;5134331;27;20045;-70
2024/01/14 08:08:43;;;;;;;;;;;19.20;38.40;;;;;;5137380;27;19927;-70
2024/01/14 08:11:09;;;;;;;;;;;19.00;38.50;;;;;;5118935;27;19924;-69
2024/01/14 08:13:34;;;;;;;;;;;19.00;38.70;;;;;;5118846;27;19928;-70
2024/01/14 08:16:00;;;;;;;;;;;18.90;38.80;;;;;;5119266;27;20035;-70
2024/01/14 08:18:26;;;;;;;;;;;18.80;38.90;;;;;;5118854;27;19923;-70
2024/01/14 08:20:51;;;;;;;;;;;18.70;39.00;;;;;;5119139;27;20006;-70
2024/01/14 08:23:17;;;;;;;;;;;18.60;39.20;;;;;;5118601;27;20336;-69
2024/01/14 08:25:45;;;;;;;;;;;18.50;39.30;;;;;;5137140;27;19919;-69
2024/01/14 08:28:11;;;;;;;;;;;18.40;39.50;;;;;;5136950;27;20430;-70
2024/01/14 08:30:37;;;;;;;;;;;18.30;39.60;;;;;;5136967;27;20393;-70
2024/01/14 08:33:02;;;;;;;;;;;18.20;39.70;;;;;;5118529;27;20364;-70
2024/01/14 08:35:28;;;;;;;;;;;18.20;39.90;;;;;;5118814;27;19919;-69
2024/01/14 08:37:53;;;;;;;;;;;18.10;40.00;;;;;;5118786;27;19926;-69
2024/01/14 08:40:19;;;;;;;;;;;18.00;40.10;;;;;;5119004;27;19968;-71
2024/01/14 08:42:45;;;;;;;;;;;17.90;40.30;;;;;;5118580;27;19919;-70
2024/01/14 08:45:12;;;;;;;;;;;17.90;40.50;;;;;;5136988;27;19972;-69
2024/01/14 08:47:38;;;;;;;;;;;17.80;41.40;;;;;;5118239;27;19924;-69
2024/01/14 08:50:04;;;;;;;;;;;17.80;40.60;;;;;;5136351;27;19924;-70
2024/01/14 08:52:30;;;;;;;;;;;17.80;40.60;;;;;;5118649;27;19971;-69
2024/01/14 08:54:55;;;;;;;;;;;17.80;40.60;;;;;;5118515;27;20432;-69
2024/01/14 08:57:21;;;;;;;;;;;17.80;40.60;;;;;;5118405;27;19926;-70
2024/01/14 08:59:46;;;;;;;;;;;17.80;40.70;;;;;;5136780;27;19923;-69
2024/01/14 09:02:12;;;;;;;;;;;17.80;40.70;;;;;;5136717;27;20026;-70
2024/01/14 09:04:37;;;;;;;;;;;17.80;40.70;;;;;;5136534;27;20293;-69
2024/01/14 09:07:03;;;;;;;;;;;17.70;40.60;;;;;;5117996;27;19923;-70
2024/01/14 09:09:28;;;;;;;;;;;17.70;40.60;;;;;;5118169;27;19919;-69
2024/01/14 09:11:54;;;;;;;;;;;17.80;40.70;;;;;;5117870;27;20012;-69
2024/01/14 09:14:19;;;;;;;;;;;17.70;40.70;;;;;;5117706;27;19926;-70
2024/01/14 09:16:45;;;;;;;;;;;17.70;40.70;;;;;;5118127;27;19919;-70
2024/01/14 09:19:12;;;;;;;;;;;17.60;40.70;;;;;;5135299;27;19927;-70
2024/01/14 09:21:37;;;;;;;;;;;17.60;40.80;;;;;;5117907;27;19923;-69
2024/01/14 09:24:03;;;;;;;;;;;17.50;40.90;;;;;;5117567;27;20454;-69
2024/01/14 09:26:29;;;;;;;;;;;17.60;41.00;;;;;;5135990;27;19919;-69
2024/01/14 09:28:54;;;;;;;;;;;17.50;41.00;;;;;;5135957;27;19925;-69
2024/01/14 09:31:21;;;;;;;;;;;17.50;41.00;;;;;;5117368;27;19923;-69
2024/01/14 09:33:49;;;;;;;;;;;17.50;41.10;;;;;;5117749;27;19927;-69
2024/01/14 09:36:18;;;;;;;;;;;17.50;41.10;;;;;;5117700;27;19958;-69
2024/01/14 09:38:44;;;;;;;;;;;17.40;41.10;;;;;;5135813;27;19972;-69
2024/01/14 09:41:29;;;;;;;;;;;17.40;41.00;;;;;;5117593;27;19920;-69
2024/01/14 09:43:57;;;;;;;;;;;17.40;41.10;;;;;;5117010;27;19964;-69
2024/01/14 09:46:22;;;;;;;;;;;17.40;41.10;;;;;;5117391;27;19926;-70
2024/01/14 09:48:48;;;;;;;;;;;17.40;41.10;;;;;;5117135;27;19920;-69
2024/01/14 09:51:16;;;;;;;;;;;17.40;41.20;;;;;;5096559;28;19952;-69
2024/01/14 09:53:41;;;;;;;;;;;17.30;41.20;;;;;;5079694;28;19926;-69
2024/01/14 09:56:09;;;;;;;;;;;17.30;41.30;;;;;;5114789;28;20300;-70
2024/01/14 09:58:35;;;;;;;;;;;17.30;41.30;;;;;;5096712;28;19920;-69
2024/01/14 10:01:03;;;;;;;;;;;17.50;41.30;;;;;;5096458;28;19972;-69
2024/01/14 10:03:29;;;;;;;;;;;17.90;41.00;;;;;;5115144;28;19924;-69
2024/01/14 10:05:55;;;;;;;;;;;18.10;40.50;;;;;;5096588;28;20489;-70
2024/01/14 10:08:21;;;;;;;;;;;18.50;40.10;;;;;;5114613;28;19927;-69
2024/01/14 10:10:53;;;;;;;;;;;18.90;39.70;;;;;;5096134;28;19928;-69
2024/01/14 10:13:21;;;;;;;;;;;19.30;39.90;;;;;;5096614;28;20042;-69
2024/01/14 10:15:47;;;;;;;;;;;19.70;38.60;;;;;;5114790;28;20389;-70
2024/01/14 10:18:13;;;;;;;;;;;20.20;38.00;;;;;;5096427;28;19946;-70
2024/01/14 10:20:38;;;;;;;;;;;20.70;37.30;;;;;;5096396;28;20363;-70
2024/01/14 10:23:05;;;;;;;;;;;21.10;36.90;;;;;;5096329;28;20363;-69
2024/01/14 10:25:30;;;;;;;;;;;21.60;36.30;;;;;;5096537;28;20370;-69
2024/01/14 10:27:56;;;;;;;;;;;22.10;35.70;;;;;;5095988;28;19920;-69
2024/01/14 10:30:23;;;;;;;;;;;22.50;35.00;;;;;;5113285;28;19966;-69
2024/01/14 10:32:49;;;;;;;;;;;22.90;34.70;;;;;;5096118;28;19927;-70
2024/01/14 10:35:15;;;;;;;;;;;23.20;34.40;;;;;;5114094;28;19920;-69
2024/01/14 10:37:41;;;;;;;;;;;23.50;33.70;;;;;;5095809;28;20424;-69
2024/01/14 10:40:08;;;;;;;;;;;23.70;33.40;;;;;;5096099;28;19927;-70
2024/01/14 10:42:35;;;;;;;;;;;23.80;33.10;;;;;;5095776;28;19920;-70
2024/01/14 10:45:00;;;;;;;;;;;24.00;32.80;;;;;;5114238;28;19978;-71
2024/01/14 10:47:27;;;;;;;;;;;24.10;32.60;;;;;;5095990;28;19962;-70
2024/01/14 10:49:53;;;;;;;;;;;24.00;32.50;;;;;;5104399;27;20358;-70
2024/01/14 10:52:21;;;;;;;;;;;24.00;32.50;;;;;;5116108;27;19950;-70
2024/01/14 10:54:49;;;;;;;;;;;23.80;32.60;;;;;;5115824;27;19919;-70
2024/01/14 11:00:04;;;;;;;;;;;23.50;33.00;;;;;;5130803;27;20010;-69
2024/01/14 11:02:31;;;;;;;;;;;23.30;33.20;;;;;;5129456;28;19920;-69
2024/01/14 11:04:57;;;;;;;;;;;23.10;33.40;;;;;;5129920;28;20014;-70
2024/01/14 11:07:23;;;;;;;;;;;22.90;33.60;;;;;;5129365;28;20370;-70
2024/01/14 11:09:50;;;;;;;;;;;22.70;33.80;;;;;;5130572;27;19969;-70
2024/01/14 11:15:04;;;;;;;;;;;22.30;34.30;;;;;;5110337;27;20401;-70
2024/01/14 11:17:41;;;;;;;;;;;22.20;34.50;;;;;;5108987;28;19920;-70
2024/01/14 11:20:10;;;;;;;;;;;22.00;34.70;;;;;;5109181;28;20041;-70
2024/01/14 11:22:35;;;;;;;;;;;21.80;35.70;;;;;;5091985;28;19920;-70
2024/01/14 11:25:02;;;;;;;;;;;21.60;35.10;;;;;;5109364;28;19927;-70
2024/01/14 11:27:29;;;;;;;;;;;21.50;35.30;;;;;;5108818;28;19920;-69
2024/01/14 11:29:58;;;;;;;;;;;21.40;35.40;;;;;;5108948;28;19920;-69
2024/01/14 11:32:23;;;;;;;;;;;21.30;35.60;;;;;;5108734;28;19926;-71
2024/01/14 11:34:54;;;;;;;;;;;21.20;35.80;;;;;;5092035;28;20386;-69
2024/01/14 11:43:00;;;;;;;;;;;20.80;36.20;;;;;;5130766;27;20022;-70
2024/01/14 11:48:06;;;;;;;;;;;20.60;36.50;;;;;;5110353;27;19912;-69
2024/01/14 11:50:35;;;;;;;;;;;20.60;36.70;;;;;;5109269;28;19926;-70
2024/01/14 11:53:03;;;;;;;;;;;20.40;36.80;;;;;;5109304;28;19920;-69
2024/01/14 11:55:29;;;;;;;;;;;20.30;37.00;;;;;;5108902;28;20014;-69
2024/01/14 11:57:55;;;;;;;;;;;20.20;37.10;;;;;;5110037;28;19920;-69
2024/01/14 12:00:22;;;;;;;;;;;20.10;37.20;;;;;;5109083;28;19973;-69
2024/01/14 12:03:01;;;;;;;;;;;20.00;37.30;;;;;;5108763;28;19930;-69
2024/01/14 12:05:27;;;;;;;;;;;19.90;37.40;;;;;;5108879;28;19965;-69
2024/01/14 12:07:53;;;;;;;;;;;19.80;37.60;;;;;;5108611;28;19932;-69
2024/01/14 12:10:18;;;;;;;;;;;19.70;37.80;;;;;;5109754;28;20434;-69
2024/01/14 12:12:44;;;;;;;;;;;19.60;37.90;;;;;;5108557;28;19962;-69
2024/01/14 12:15:10;;;;;;;;;;;19.50;38.00;;;;;;5108495;28;19927;-69
2024/01/14 12:17:36;;;;;;;;;;;19.40;38.10;;;;;;5108488;28;19924;-70
2024/01/14 12:20:04;;;;;;;;;;;19.30;38.30;;;;;;5108364;28;19927;-70
2024/01/14 12:22:30;;;;;;;;;;;19.20;38.40;;;;;;5108624;28;19920;-69
2024/01/14 12:24:55;;;;;;;;;;;19.10;38.70;;;;;;5108389;28;19942;-69
2024/01/14 12:27:21;;;;;;;;;;;19.00;38.90;;;;;;5108192;28;19924;-71
2024/01/14 12:29:47;;;;;;;;;;;18.90;38.80;;;;;;5108576;28;19924;-70
2024/01/14 12:32:12;;;;;;;;;;;18.80;39.00;;;;;;5108123;28;19920;-69
2024/01/14 12:34:38;;;;;;;;;;;18.70;39.20;;;;;;5109664;28;20014;-69
2024/01/14 12:37:04;;;;;;;;;;;18.70;39.40;;;;;;5108373;28;19973;-69
2024/01/14 12:39:30;;;;;;;;;;;18.60;39.50;;;;;;5108124;28;19920;-70
2024/01/14 12:41:55;;;;;;;;;;;18.50;39.60;;;;;;5107939;28;19969;-69
2024/01/14 12:44:26;;;;;;;;;;;18.40;39.70;;;;;;5107959;28;20366;-69
2024/01/14 12:47:02;;;;;;;;;;;18.30;39.80;;;;;;5107730;28;19954;-69
2024/01/14 12:49:28;;;;;;;;;;;18.30;39.90;;;;;;5107920;28;20006;-69
2024/01/14 12:52:01;;;;;;;;;;;18.30;40.10;;;;;;5108081;28;19963;-69
2024/01/14 12:54:27;;;;;;;;;;;18.20;40.10;;;;;;5107737;28;19920;-69
2024/01/14 12:57:00;;;;;;;;;;;18.20;40.20;;;;;;5107822;28;19927;-69
2024/01/14 12:59:26;;;;;;;;;;;18.10;40.30;;;;;;5095280;28;19920;-69
2024/01/14 13:01:52;;;;;;;;;;;18.00;40.40;;;;;;5094279;28;19931;-68
2024/01/14 13:04:17;;;;;;;;;;;18.00;40.50;;;;;;5094344;28;20298;-69
2024/01/14 13:06:43;;;;;;;;;;;18.00;40.50;;;;;;5093751;28;20053;-69
2024/01/14 13:09:08;;;;;;;;;;;17.90;40.60;;;;;;5094262;28;19920;-69
2024/01/14 13:11:34;;;;;;;;;;;17.90;40.60;;;;;;5128067;27;19920;-69
2024/01/14 13:14:00;;;;;;;;;;;17.90;40.60;;;;;;5094428;28;19921;-69
2024/01/14 13:16:25;;;;;;;;;;;17.90;40.60;;;;;;5093761;28;19920;-70
2024/01/14 13:18:51;;;;;;;;;;;17.80;40.60;;;;;;5095135;28;19924;-70
2024/01/14 13:21:16;;;;;;;;;;;17.80;40.60;;;;;;5094927;28;19920;-70
2024/01/14 13:23:42;;;;;;;;;;;17.80;40.70;;;;;;5093844;28;19927;-69
2024/01/14 13:26:07;;;;;;;;;;;17.80;40.70;;;;;;5094711;28;19974;-69
2024/01/14 13:28:33;;;;;;;;;;;17.80;40.80;;;;;;5094696;28;19974;-69
2024/01/14 13:30:59;;;;;;;;;;;17.70;40.70;;;;;;5093689;28;19920;-70
2024/01/14 13:33:25;;;;;;;;;;;17.70;40.80;;;;;;5093717;28;19971;-69
2024/01/14 13:35:50;;;;;;;;;;;17.70;40.90;;;;;;5094745;28;20387;-68
2024/01/14 13:38:16;;;;;;;;;;;17.60;40.90;;;;;;5093672;28;20002;-70
2024/01/14 13:40:42;;;;;;;;;;;17.60;41.00;;;;;;5093722;28;19963;-70
2024/01/14 13:43:07;;;;;;;;;;;17.60;41.00;;;;;;5095221;28;20363;-70
2024/01/14 13:45:33;;;;;;;;;;;17.50;41.10;;;;;;5093235;28;19973;-71
2024/01/14 13:47:59;;;;;;;;;;;17.50;41.10;;;;;;5093129;28;20326;-70
2024/01/14 13:50:24;;;;;;;;;;;17.50;41.10;;;;;;5094683;28;20007;-70
2024/01/14 13:52:50;;;;;;;;;;;17.50;41.20;;;;;;5093374;28;19920;-70
2024/01/14 13:55:16;;;;;;;;;;;17.50;41.20;;;;;;5094805;28;20456;-70
2024/01/14 13:57:42;;;;;;;;;;;17.50;41.20;;;;;;5092993;28;19920;-71
2024/01/14 14:00:08;;;;;;;;;;;17.40;41.20;;;;;;5093305;28;19935;-70
2024/01/14 14:02:34;;;;;;;;;;;17.40;41.30;;;;;;5093035;28;19951;-69
2024/01/14 14:05:00;;;;;;;;;;;17.40;41.30;;;;;;5092753;28;20379;-69
2024/01/14 14:07:29;;;;;;;;;;;17.40;41.30;;;;;;5092629;28;20031;-70
2024/01/14 14:09:55;;;;;;;;;;;17.40;41.30;;;;;;5092926;28;19943;-69
2024/01/14 14:12:20;;;;;;;;;;;17.40;41.40;;;;;;5092651;28;20375;-69
2024/01/14 14:14:46;;;;;;;;;;;17.30;41.40;;;;;;5093850;28;19927;-70
2024/01/14 14:17:11;;;;;;;;;;;17.30;41.40;;;;;;5093846;28;19920;-71
2024/01/14 14:19:37;;;;;;;;;;;17.40;41.50;;;;;;5093860;28;19924;-70
2024/01/14 14:22:02;;;;;;;;;;;17.30;41.50;;;;;;5092776;28;20038;-70
2024/01/14 14:24:31;;;;;;;;;;;17.40;41.60;;;;;;5092373;28;19920;-69